Time;durP1;ratioP1;P1;durP2;ratioP2;P2;SDS_P1;SDS_P2;PMS_P1;PMS_P2;Temp;Humidity;BMP_temperature;BMP_pressure;BME280_temperature;BME280_humidity;BME280_pressure;Samples;Min_cycle;Max_cycle;Signal;HPM_P1;HPM_P2
2021/03/26 00:02:10;;;;;;;10.20;6.93;;;;;;;;;;5002459;28;20046;-64
2021/03/26 00:04:56;;;;;;;13.07;7.20;;;;;;;;;;5013325;28;20053;-65
2021/03/26 00:07:41;;;;;;;13.50;7.07;;;;;;;;;;5006582;28;20053;-65
2021/03/26 00:10:27;;;;;;;12.48;6.38;;;;;;;;;;5007069;28;20476;-65
2021/03/26 00:13:12;;;;;;;9.80;6.00;;;;;;;;;;5006169;28;20500;-65
2021/03/26 00:15:57;;;;;;;12.07;6.82;;;;;;;;;;5014507;28;20042;-65
2021/03/26 00:18:43;;;;;;;11.85;6.43;;;;;;;;;;5015376;28;20045;-64
2021/03/26 00:21:28;;;;;;;11.52;7.10;;;;;;;;;;5002584;28;20431;-65
2021/03/26 00:24:13;;;;;;;14.00;6.35;;;;;;;;;;5014425;28;20076;-65
2021/03/26 00:26:59;;;;;;;12.00;6.75;;;;;;;;;;5006608;28;20136;-65
2021/03/26 00:29:45;;;;;;;14.80;6.65;;;;;;;;;;5000861;28;20132;-65
2021/03/26 00:32:30;;;;;;;12.45;6.30;;;;;;;;;;5003288;28;20053;-65
2021/03/26 00:35:16;;;;;;;11.35;6.32;;;;;;;;;;4995009;28;20054;-65
2021/03/26 00:38:01;;;;;;;12.50;6.88;;;;;;;;;;4995519;28;20050;-64
2021/03/26 00:40:47;;;;;;;8.75;5.72;;;;;;;;;;4995049;28;20051;-64
2021/03/26 00:43:32;;;;;;;10.25;5.70;;;;;;;;;;5000079;28;20050;-65
2021/03/26 00:46:18;;;;;;;15.88;5.47;;;;;;;;;;5013078;28;20045;-65
2021/03/26 00:49:04;;;;;;;6.90;5.38;;;;;;;;;;5008090;28;20050;-64
2021/03/26 00:51:49;;;;;;;10.10;5.32;;;;;;;;;;5004298;28;20053;-65
2021/03/26 00:54:34;;;;;;;8.48;4.88;;;;;;;;;;5010444;28;20100;-65
2021/03/26 00:57:20;;;;;;;9.90;4.72;;;;;;;;;;4994772;28;20068;-65
2021/03/26 01:00:07;;;;;;;10.57;4.90;;;;;;;;;;4993683;28;20050;-65
2021/03/26 01:02:55;;;;;;;13.23;5.50;;;;;;;;;;4997175;28;20057;-65
2021/03/26 01:05:42;;;;;;;15.90;5.55;;;;;;;;;;5011689;28;20046;-65
2021/03/26 01:08:27;;;;;;;13.15;5.32;;;;;;;;;;5010922;28;20058;-65
2021/03/26 01:11:19;;;;;;;15.35;6.13;;;;;;;;;;4999812;28;20042;-63
2021/03/26 01:14:05;;;;;;;8.45;5.70;;;;;;;;;;4994513;28;20493;-66
2021/03/26 01:16:52;;;;;;;13.63;5.57;;;;;;;;;;5014225;28;20054;-65
2021/03/26 01:19:42;;;;;;;12.63;5.40;;;;;;;;;;5013782;28;20465;-65
2021/03/26 01:22:28;;;;;;;11.57;5.50;;;;;;;;;;5013807;28;20389;-65
2021/03/26 01:25:23;;;;;;;10.43;5.38;;;;;;;;;;5012381;28;20049;-65
2021/03/26 01:28:19;;;;;;;10.85;5.68;;;;;;;;;;5016732;28;20050;-65
2021/03/26 01:31:10;;;;;;;9.23;5.45;;;;;;;;;;5004444;28;20065;-65
2021/03/26 01:33:56;;;;;;;8.55;5.10;;;;;;;;;;4998080;28;20047;-64
2021/03/26 01:36:44;;;;;;;10.43;5.50;;;;;;;;;;5009517;28;20046;-65
2021/03/26 01:39:32;;;;;;;12.65;5.68;;;;;;;;;;5013499;28;20057;-65
2021/03/26 01:42:22;;;;;;;9.02;5.25;;;;;;;;;;5013546;28;20422;-65
2021/03/26 01:45:12;;;;;;;9.38;4.85;;;;;;;;;;5012924;28;20052;-65
2021/03/26 01:48:07;;;;;;;12.95;4.88;;;;;;;;;;5011889;28;20038;-64
2021/03/26 01:50:53;;;;;;;12.65;4.55;;;;;;;;;;5002777;28;20504;-65
2021/03/26 01:53:39;;;;;;;11.55;5.22;;;;;;;;;;4992776;28;20047;-65
2021/03/26 01:56:25;;;;;;;10.90;5.00;;;;;;;;;;5007827;28;20334;-65
2021/03/26 01:59:30;;;;;;;12.65;5.13;;;;;;;;;;4993409;28;20511;-65
2021/03/26 02:02:20;;;;;;;12.05;6.10;;;;;;;;;;5006380;28;20045;-65
2021/03/26 02:05:34;;;;;;;8.52;5.53;;;;;;;;;;4997757;28;20038;-65
2021/03/26 02:08:41;;;;;;;10.13;5.50;;;;;;;;;;5000054;28;20076;-64
2021/03/26 02:11:32;;;;;;;10.52;5.35;;;;;;;;;;5011151;28;20054;-65
2021/03/26 02:14:21;;;;;;;10.70;5.30;;;;;;;;;;4997767;28;20050;-64
2021/03/26 02:17:07;;;;;;;11.88;5.75;;;;;;;;;;5007538;28;20407;-63
2021/03/26 02:20:09;;;;;;;11.70;6.43;;;;;;;;;;5011551;28;20424;-65
2021/03/26 02:22:58;;;;;;;9.98;5.70;;;;;;;;;;5012519;28;20046;-64
2021/03/26 02:25:45;;;;;;;11.43;5.95;;;;;;;;;;5011401;28;20553;-64
2021/03/26 02:28:32;;;;;;;12.70;5.72;;;;;;;;;;5011281;28;20619;-64
2021/03/26 02:31:36;;;;;;;10.70;6.60;;;;;;;;;;5005850;28;20038;-63
2021/03/26 02:34:22;;;;;;;12.68;6.72;;;;;;;;;;5010162;28;20053;-64
2021/03/26 02:37:08;;;;;;;11.38;6.68;;;;;;;;;;5011348;28;20058;-65
2021/03/26 02:39:53;;;;;;;9.45;6.45;;;;;;;;;;4992202;28;20050;-63
2021/03/26 02:42:43;;;;;;;11.43;6.57;;;;;;;;;;4991700;28;20046;-64
2021/03/26 02:45:29;;;;;;;11.95;7.28;;;;;;;;;;4991664;28;20046;-64
2021/03/26 02:48:25;;;;;;;10.38;6.88;;;;;;;;;;4982392;28;20053;-63
2021/03/26 02:51:18;;;;;;;14.35;7.25;;;;;;;;;;5003290;28;20121;-63
2021/03/26 02:54:22;;;;;;;14.95;7.85;;;;;;;;;;4988439;28;20179;-64
2021/03/26 02:57:09;;;;;;;15.45;8.55;;;;;;;;;;4990597;28;20042;-65
2021/03/26 02:59:58;;;;;;;15.85;9.35;;;;;;;;;;5010257;28;20049;-64
2021/03/26 03:02:43;;;;;;;17.00;8.95;;;;;;;;;;5011005;28;20054;-63
2021/03/26 03:05:32;;;;;;;12.60;9.10;;;;;;;;;;5011291;28;20100;-64
2021/03/26 03:08:22;;;;;;;18.08;11.60;;;;;;;;;;5010542;28;20038;-64
2021/03/26 03:11:42;;;;;;;15.97;9.80;;;;;;;;;;4979762;28;20050;-64
2021/03/26 03:14:43;;;;;;;17.20;10.98;;;;;;;;;;4998152;28;20281;-65
2021/03/26 03:17:30;;;;;;;14.35;10.57;;;;;;;;;;5011677;28;20140;-63
2021/03/26 03:20:27;;;;;;;20.20;11.65;;;;;;;;;;5010870;28;20052;-63
2021/03/26 03:23:39;;;;;;;20.90;11.23;;;;;;;;;;4996769;28;20050;-63
2021/03/26 03:26:49;;;;;;;18.02;12.68;;;;;;;;;;5003795;28;20053;-63
2021/03/26 03:29:44;;;;;;;17.77;11.32;;;;;;;;;;5012119;28;20042;-66
2021/03/26 03:33:02;;;;;;;18.98;12.80;;;;;;;;;;5010888;28;20046;-64
2021/03/26 03:35:57;;;;;;;22.55;12.65;;;;;;;;;;4995767;28;20046;-63
2021/03/26 03:38:54;;;;;;;23.95;14.20;;;;;;;;;;4999085;28;20420;-64
2021/03/26 03:41:41;;;;;;;21.73;14.13;;;;;;;;;;4977456;28;20054;-64
2021/03/26 03:44:38;;;;;;;18.63;14.77;;;;;;;;;;5007212;28;20038;-63
2021/03/26 03:47:23;;;;;;;24.98;15.50;;;;;;;;;;4997082;28;20133;-64
2021/03/26 03:51:00;;;;;;;23.35;14.43;;;;;;;;;;5010820;28;20508;-64
2021/03/26 03:53:55;;;;;;;26.80;16.05;;;;;;;;;;4946464;28;20151;-64
2021/03/26 03:56:44;;;;;;;23.45;15.57;;;;;;;;;;5010393;28;20041;-64
2021/03/26 03:59:48;;;;;;;24.70;16.17;;;;;;;;;;4994071;28;20042;-64
2021/03/26 04:02:40;;;;;;;22.58;15.55;;;;;;;;;;5010516;28;20045;-64
2021/03/26 04:05:33;;;;;;;24.38;15.82;;;;;;;;;;5011070;28;20488;-63
2021/03/26 04:08:29;;;;;;;24.80;16.70;;;;;;;;;;4997464;28;20050;-64
2021/03/26 04:11:26;;;;;;;27.15;16.60;;;;;;;;;;4993794;28;20408;-64
2021/03/26 04:14:22;;;;;;;26.35;17.17;;;;;;;;;;4987923;28;20492;-64
2021/03/26 04:17:19;;;;;;;27.27;16.77;;;;;;;;;;5010927;28;20046;-65
2021/03/26 04:20:06;;;;;;;23.13;17.10;;;;;;;;;;5005965;28;20121;-65
2021/03/26 04:22:54;;;;;;;28.90;18.15;;;;;;;;;;4994333;28;20073;-64
2021/03/26 04:25:51;;;;;;;32.22;19.88;;;;;;;;;;4994835;28;20046;-63
2021/03/26 04:28:57;;;;;;;28.67;20.00;;;;;;;;;;5005498;28;20046;-64
2021/03/26 04:32:00;;;;;;;31.70;20.67;;;;;;;;;;4982979;28;20046;-65
2021/03/26 04:34:47;;;;;;;31.30;21.85;;;;;;;;;;4990288;28;20052;-63
2021/03/26 04:37:35;;;;;;;31.42;21.15;;;;;;;;;;4996204;28;20446;-63
2021/03/26 04:40:30;;;;;;;29.75;22.27;;;;;;;;;;5013658;28;20508;-64
2021/03/26 04:43:19;;;;;;;32.85;21.63;;;;;;;;;;4998794;28;20076;-63
2021/03/26 04:46:12;;;;;;;37.17;24.23;;;;;;;;;;5001311;28;20085;-64
2021/03/26 04:49:15;;;;;;;32.42;21.83;;;;;;;;;;5001647;28;20520;-64
2021/03/26 04:52:08;;;;;;;37.90;23.45;;;;;;;;;;5000457;28;20049;-64
2021/03/26 04:55:07;;;;;;;33.20;22.20;;;;;;;;;;5006470;28;20041;-64
2021/03/26 04:58:15;;;;;;;32.60;23.08;;;;;;;;;;5008617;28;20050;-64
2021/03/26 05:01:21;;;;;;;33.85;23.92;;;;;;;;;;5004170;28;20535;-64
2021/03/26 05:04:21;;;;;;;34.50;22.63;;;;;;;;;;4998214;28;20133;-63
2021/03/26 05:07:08;;;;;;;;;;;;;;;;;;5004449;28;20050;-64
2021/03/26 05:09:54;;;;;;;37.70;24.27;;;;;;;;;;5012816;28;19922;-64
2021/03/26 05:13:07;;;;;;;35.53;22.98;;;;;;;;;;5012739;28;20054;-64
2021/03/26 05:16:01;;;;;;;33.72;22.83;;;;;;;;;;4994028;28;20049;-64
2021/03/26 05:19:03;;;;;;;36.10;23.23;;;;;;;;;;4986105;28;20495;-64
2021/03/26 05:21:54;;;;;;;33.97;23.63;;;;;;;;;;4980427;28;20491;-64
2021/03/26 05:25:04;;;;;;;31.25;23.40;;;;;;;;;;4992989;28;20071;-64
2021/03/26 05:28:09;;;;;;;30.60;22.00;;;;;;;;;;5012443;28;20452;-64
2021/03/26 05:30:56;;;;;;;29.45;22.40;;;;;;;;;;5012950;28;20415;-64
2021/03/26 05:33:49;;;;;;;32.15;23.30;;;;;;;;;;5000102;28;20054;-64
2021/03/26 05:36:36;;;;;;;30.40;21.65;;;;;;;;;;5012504;28;20166;-64
2021/03/26 05:39:40;;;;;;;30.25;21.77;;;;;;;;;;5004182;28;20400;-64
2021/03/26 05:42:46;;;;;;;37.97;25.77;;;;;;;;;;5027085;23;20452;-64
2021/03/26 05:45:39;;;;;;;32.17;23.45;;;;;;;;;;5025816;28;20042;-64
2021/03/26 05:48:52;;;;;;;33.00;23.50;;;;;;;;;;5001968;28;20042;-64
2021/03/26 05:51:43;;;;;;;29.63;23.52;;;;;;;;;;5012775;28;20085;-64
2021/03/26 05:54:35;;;;;;;30.92;22.38;;;;;;;;;;5011648;28;20049;-64
2021/03/26 05:57:30;;;;;;;34.35;24.33;;;;;;;;;;5013791;28;20119;-64
2021/03/26 06:00:29;;;;;;;30.95;22.10;;;;;;;;;;5024550;28;20396;-64
2021/03/26 06:03:48;;;;;;;35.37;23.80;;;;;;;;;;5004551;28;20046;-64
2021/03/26 06:07:21;;;;;;;33.78;23.50;;;;;;;;;;5011896;28;20050;-64
2021/03/26 06:10:29;;;;;;;36.83;24.58;;;;;;;;;;5002676;28;20053;-64
2021/03/26 06:13:36;;;;;;;34.47;23.60;;;;;;;;;;5012972;28;20496;-64
2021/03/26 06:16:40;;;;;;;32.58;23.15;;;;;;;;;;5010446;28;20050;-64
2021/03/26 06:19:48;;;;;;;33.88;23.38;;;;;;;;;;5012978;28;20050;-64
2021/03/26 06:23:02;;;;;;;36.20;24.90;;;;;;;;;;4997154;28;20053;-64
2021/03/26 06:26:07;;;;;;;37.65;25.10;;;;;;;;;;5005685;28;20045;-64
2021/03/26 06:29:01;;;;;;;38.65;25.30;;;;;;;;;;5011724;28;20049;-65
2021/03/26 06:32:06;;;;;;;37.88;26.27;;;;;;;;;;5010533;28;20149;-65
2021/03/26 06:35:26;;;;;;;44.38;28.45;;;;;;;;;;5012209;28;20041;-64
2021/03/26 06:38:14;;;;;;;42.30;27.45;;;;;;;;;;5005890;28;20128;-62
2021/03/26 06:41:01;;;;;;;45.33;29.85;;;;;;;;;;4998130;28;20049;-63
2021/03/26 06:43:58;;;;;;;50.78;30.08;;;;;;;;;;5011755;28;20045;-62
2021/03/26 06:46:58;;;;;;;47.20;30.15;;;;;;;;;;5011120;28;20076;-63
2021/03/26 06:50:06;;;;;;;44.53;30.85;;;;;;;;;;5012470;28;20049;-63
2021/03/26 06:52:55;;;;;;;51.10;31.67;;;;;;;;;;4992707;28;20050;-63
2021/03/26 06:55:44;;;;;;;47.83;31.38;;;;;;;;;;5010331;28;20100;-63
2021/03/26 06:58:44;;;;;;;45.63;29.50;;;;;;;;;;5012656;28;20128;-63
2021/03/26 07:01:39;;;;;;;43.25;29.63;;;;;;;;;;5012110;28;20053;-63
2021/03/26 07:04:25;;;;;;;42.67;28.65;;;;;;;;;;5011011;28;20053;-62
2021/03/26 07:07:28;;;;;;;44.58;29.40;;;;;;;;;;5012261;28;20062;-62
2021/03/26 07:10:14;;;;;;;;;;;;;;;;;;5012755;28;20050;-61
2021/03/26 07:13:18;;;;;;;41.45;28.15;;;;;;;;;;5012112;28;20326;-62
2021/03/26 07:16:16;;;;;;;46.03;29.52;;;;;;;;;;5012029;28;20064;-62
2021/03/26 07:19:20;;;;;;;46.10;28.33;;;;;;;;;;5011115;28;20447;-62
2021/03/26 07:22:06;;;;;;;46.35;29.90;;;;;;;;;;4996631;28;20042;-62
2021/03/26 07:24:55;;;;;;;49.15;32.58;;;;;;;;;;5011906;28;20057;-63
2021/03/26 07:27:59;;;;;;;45.63;28.33;;;;;;;;;;4995695;28;20054;-62
2021/03/26 07:31:05;;;;;;;45.08;29.48;;;;;;;;;;5001608;28;20046;-62
2021/03/26 07:33:55;;;;;;;45.00;31.63;;;;;;;;;;5011197;28;20065;-63
2021/03/26 07:36:54;;;;;;;49.30;30.98;;;;;;;;;;5011005;28;20522;-62
2021/03/26 07:39:44;;;;;;;44.15;28.65;;;;;;;;;;4993757;28;20062;-63
2021/03/26 07:42:36;;;;;;;43.47;29.98;;;;;;;;;;4991400;28;20491;-63
2021/03/26 07:45:24;;;;;;;45.47;29.77;;;;;;;;;;4993820;28;20061;-63
2021/03/26 07:48:13;;;;;;;47.05;30.65;;;;;;;;;;4995133;28;20817;-63
2021/03/26 07:51:02;;;;;;;45.95;29.27;;;;;;;;;;5001627;28;20042;-65
2021/03/26 07:53:57;;;;;;;47.17;31.15;;;;;;;;;;5014683;28;20492;-65
2021/03/26 07:56:50;;;;;;;43.67;29.92;;;;;;;;;;5014538;28;20050;-65
2021/03/26 07:59:54;;;;;;;39.80;27.10;;;;;;;;;;5015749;28;20050;-64
2021/03/26 08:02:45;;;;;;;45.00;29.08;;;;;;;;;;4995836;28;20050;-65
2021/03/26 08:05:33;;;;;;;40.53;28.60;;;;;;;;;;4995635;28;20507;-65
2021/03/26 08:08:37;;;;;;;40.90;28.48;;;;;;;;;;4994867;28;20046;-65
2021/03/26 08:11:25;;;;;;;43.80;28.13;;;;;;;;;;5005653;28;20046;-64
2021/03/26 08:14:16;;;;;;;43.42;29.13;;;;;;;;;;5014176;28;20049;-63
2021/03/26 08:17:13;;;;;;;39.40;27.55;;;;;;;;;;5015217;28;20042;-64
2021/03/26 08:20:17;;;;;;;35.97;25.67;;;;;;;;;;5014402;28;20050;-64
2021/03/26 08:23:05;;;;;;;39.15;26.48;;;;;;;;;;5000104;28;20065;-65
2021/03/26 08:25:50;;;;;;;38.75;27.55;;;;;;;;;;5015115;28;20054;-65
2021/03/26 08:28:40;;;;;;;37.35;27.27;;;;;;;;;;5015068;28;20082;-64
2021/03/26 08:31:31;;;;;;;39.72;27.75;;;;;;;;;;5013930;28;20041;-65
2021/03/26 08:34:16;;;;;;;38.70;28.48;;;;;;;;;;5014735;28;20419;-65
2021/03/26 08:37:14;;;;;;;37.50;27.05;;;;;;;;;;5014674;28;20435;-65
2021/03/26 08:39:59;;;;;;;33.38;25.77;;;;;;;;;;5000109;28;20046;-65
2021/03/26 08:42:45;;;;;;;39.05;26.65;;;;;;;;;;5013282;28;20089;-65
2021/03/26 08:45:34;;;;;;;36.63;26.88;;;;;;;;;;5012909;28;20034;-65
2021/03/26 08:48:26;;;;;;;35.78;25.20;;;;;;;;;;5013596;28;20503;-66
2021/03/26 08:51:29;;;;;;;34.08;24.48;;;;;;;;;;5014680;28;20053;-66
2021/03/26 08:54:33;;;;;;;31.40;24.13;;;;;;;;;;5013312;28;20124;-63
2021/03/26 08:57:39;;;;;;;37.35;26.35;;;;;;;;;;5013957;28;20100;-64
2021/03/26 09:00:43;;;;;;;37.40;24.98;;;;;;;;;;5010506;28;20112;-63
2021/03/26 09:03:51;;;;;;;34.65;24.52;;;;;;;;;;5009531;28;20042;-64
2021/03/26 09:06:44;;;;;;;33.05;23.35;;;;;;;;;;5011242;28;20041;-63
2021/03/26 09:09:48;;;;;;;33.45;23.92;;;;;;;;;;5008241;28;20404;-64
2021/03/26 09:12:39;;;;;;;33.00;24.02;;;;;;;;;;5009493;28;20119;-64
2021/03/26 09:15:42;;;;;;;30.80;24.35;;;;;;;;;;5009150;28;20634;-63
2021/03/26 09:18:36;;;;;;;31.75;21.90;;;;;;;;;;5012032;28;20042;-64
2021/03/26 09:21:24;;;;;;;28.08;20.70;;;;;;;;;;5009758;28;20054;-64
2021/03/26 09:24:18;;;;;;;27.73;20.65;;;;;;;;;;5009303;28;20054;-62
2021/03/26 09:27:18;;;;;;;32.67;22.17;;;;;;;;;;5011929;28;20388;-64
2021/03/26 09:30:09;;;;;;;25.48;19.52;;;;;;;;;;5012339;28;20113;-63
2021/03/26 09:32:55;;;;;;;33.42;22.35;;;;;;;;;;5010403;28;20046;-63
2021/03/26 09:35:43;;;;;;;26.52;21.90;;;;;;;;;;5012157;28;20125;-64
2021/03/26 09:38:31;;;;;;;31.45;22.30;;;;;;;;;;5013970;28;20054;-64
2021/03/26 09:41:22;;;;;;;27.95;20.42;;;;;;;;;;5006160;28;20046;-64
2021/03/26 09:44:09;;;;;;;27.88;20.77;;;;;;;;;;4996406;28;20128;-63
2021/03/26 09:47:00;;;;;;;25.70;19.30;;;;;;;;;;5009587;28;20045;-64
2021/03/26 09:49:49;;;;;;;23.80;19.15;;;;;;;;;;5004114;28;20073;-64
2021/03/26 09:52:38;;;;;;;27.80;19.05;;;;;;;;;;5003077;28;20039;-64
2021/03/26 09:55:28;;;;;;;24.48;18.20;;;;;;;;;;5009929;28;20045;-64
2021/03/26 09:58:14;;;;;;;26.48;19.20;;;;;;;;;;5011590;28;20499;-64
2021/03/26 10:01:12;;;;;;;28.58;20.05;;;;;;;;;;5012080;28;20053;-63
2021/03/26 10:04:27;;;;;;;25.63;18.73;;;;;;;;;;5006764;28;20054;-63
2021/03/26 10:07:32;;;;;;;22.27;16.63;;;;;;;;;;4989568;28;20133;-62
2021/03/26 10:13:14;;;;;;;22.77;16.38;;;;;;;;;;5007629;28;20050;-62
2021/03/26 10:16:00;;;;;;;23.48;15.93;;;;;;;;;;5011840;28;20064;-62
2021/03/26 10:18:53;;;;;;;20.15;15.38;;;;;;;;;;5004740;28;20506;-62
2021/03/26 10:21:38;;;;;;;20.42;15.00;;;;;;;;;;5001899;28;20037;-61
2021/03/26 10:24:25;;;;;;;22.38;15.27;;;;;;;;;;5003926;28;20069;-63
2021/03/26 10:27:13;;;;;;;19.38;14.43;;;;;;;;;;5003509;28;20050;-62
2021/03/26 10:30:07;;;;;;;21.13;15.45;;;;;;;;;;5004629;28;20042;-62
2021/03/26 10:32:52;;;;;;;18.73;12.82;;;;;;;;;;4999908;28;20038;-62
2021/03/26 10:35:38;;;;;;;17.33;11.02;;;;;;;;;;5011313;28;20042;-64
2021/03/26 10:38:30;;;;;;;12.80;8.93;;;;;;;;;;5011373;28;20113;-64
2021/03/26 10:41:21;;;;;;;16.88;11.07;;;;;;;;;;5011225;28;20049;-65
2021/03/26 10:44:11;;;;;;;17.15;9.40;;;;;;;;;;5012854;28;20046;-65
2021/03/26 10:46:59;;;;;;;12.77;8.32;;;;;;;;;;5011204;28;20411;-65
2021/03/26 10:49:50;;;;;;;11.38;8.35;;;;;;;;;;5011599;28;20401;-63
2021/03/26 10:52:37;;;;;;;13.93;8.70;;;;;;;;;;5002955;28;20508;-63
2021/03/26 10:55:23;;;;;;;11.55;8.50;;;;;;;;;;5010923;28;20049;-63
2021/03/26 10:58:11;;;;;;;14.32;9.13;;;;;;;;;;5007140;28;20043;-63
2021/03/26 11:01:02;;;;;;;14.02;8.90;;;;;;;;;;5017333;28;20045;-63
2021/03/26 11:03:52;;;;;;;12.82;9.13;;;;;;;;;;4999856;28;20050;-63
2021/03/26 11:06:41;;;;;;;16.30;9.48;;;;;;;;;;4997579;28;20607;-63
2021/03/26 11:09:37;;;;;;;13.43;9.82;;;;;;;;;;5010774;28;20504;-62
2021/03/26 11:12:41;;;;;;;13.10;9.60;;;;;;;;;;5010749;28;20049;-63
2021/03/26 11:15:31;;;;;;;13.32;8.90;;;;;;;;;;5010332;28;20041;-64
2021/03/26 11:18:22;;;;;;;14.82;9.23;;;;;;;;;;5008872;28;20046;-63
2021/03/26 11:21:10;;;;;;;15.20;9.75;;;;;;;;;;5014712;28;20570;-63
2021/03/26 11:23:59;;;;;;;16.77;10.68;;;;;;;;;;5014000;28;20041;-63
2021/03/26 11:26:51;;;;;;;17.08;10.40;;;;;;;;;;5013996;28;20046;-63
2021/03/26 11:29:36;;;;;;;13.10;10.50;;;;;;;;;;5008770;28;20043;-63
2021/03/26 11:32:25;;;;;;;17.48;10.55;;;;;;;;;;5014796;28;20042;-63
2021/03/26 11:35:14;;;;;;;19.85;9.80;;;;;;;;;;5013033;28;20042;-63
2021/03/26 11:38:01;;;;;;;15.40;8.98;;;;;;;;;;5004035;28;20104;-63
2021/03/26 11:40:48;;;;;;;15.30;9.68;;;;;;;;;;5004212;28;20057;-63
2021/03/26 11:43:48;;;;;;;15.70;8.82;;;;;;;;;;5008814;28;20132;-63
2021/03/26 11:46:37;;;;;;;14.48;9.65;;;;;;;;;;5013571;28;20045;-63
2021/03/26 11:49:36;;;;;;;20.95;9.40;;;;;;;;;;5015346;28;20174;-63
2021/03/26 11:52:21;;;;;;;15.25;9.32;;;;;;;;;;5013034;28;20125;-63
2021/03/26 11:55:08;;;;;;;12.73;8.93;;;;;;;;;;5040051;23;20050;-64
2021/03/26 11:57:53;;;;;;;11.93;8.57;;;;;;;;;;4994938;28;20042;-64
2021/03/26 12:00:39;;;;;;;14.00;7.32;;;;;;;;;;4997215;28;20046;-64
2021/03/26 12:03:43;;;;;;;9.65;8.05;;;;;;;;;;5000687;28;20489;-64
2021/03/26 12:06:45;;;;;;;11.40;7.18;;;;;;;;;;5001727;28;20042;-64
2021/03/26 12:09:36;;;;;;;15.63;7.45;;;;;;;;;;5013956;28;20045;-64
2021/03/26 12:12:22;;;;;;;9.98;6.00;;;;;;;;;;4975551;28;20083;-64
2021/03/26 12:15:09;;;;;;;15.80;6.63;;;;;;;;;;4989422;28;20521;-63
2021/03/26 12:17:59;;;;;;;10.57;6.50;;;;;;;;;;4991084;28;20077;-63
2021/03/26 12:20:44;;;;;;;11.52;5.60;;;;;;;;;;4976654;28;20093;-64
2021/03/26 12:23:34;;;;;;;10.35;5.50;;;;;;;;;;4994296;28;20042;-63
2021/03/26 12:26:22;;;;;;;9.07;5.13;;;;;;;;;;4994035;28;20058;-63
2021/03/26 12:29:10;;;;;;;9.18;4.13;;;;;;;;;;4993117;28;20045;-63
2021/03/26 12:32:07;;;;;;;11.45;4.43;;;;;;;;;;4985865;28;20077;-64
2021/03/26 12:34:53;;;;;;;5.70;3.30;;;;;;;;;;4997446;28;20516;-63
2021/03/26 12:37:57;;;;;;;9.50;3.40;;;;;;;;;;4980672;28;20042;-63
2021/03/26 12:40:43;;;;;;;7.30;4.25;;;;;;;;;;4994432;28;20050;-63
2021/03/26 12:43:31;;;;;;;11.40;3.72;;;;;;;;;;4995000;28;20136;-63
2021/03/26 12:46:18;;;;;;;12.05;4.22;;;;;;;;;;4994616;28;20138;-63
2021/03/26 12:49:05;;;;;;;7.90;3.25;;;;;;;;;;4994092;28;20042;-63
2021/03/26 12:51:52;;;;;;;5.97;3.75;;;;;;;;;;4995031;28;20047;-63
2021/03/26 12:54:41;;;;;;;6.72;3.92;;;;;;;;;;4994626;28;20459;-63
2021/03/26 12:57:27;;;;;;;7.70;4.75;;;;;;;;;;4974513;28;20711;-63
2021/03/26 13:00:36;;;;;;;7.22;4.22;;;;;;;;;;4974513;28;20420;-63
2021/03/26 13:03:39;;;;;;;9.70;4.28;;;;;;;;;;4975196;28;20058;-63
2021/03/26 13:06:25;;;;;;;7.85;3.78;;;;;;;;;;4975492;28;20062;-63
2021/03/26 13:09:28;;;;;;;7.45;3.80;;;;;;;;;;4975213;28;20046;-63
2021/03/26 13:12:14;;;;;;;7.22;3.75;;;;;;;;;;4975274;28;20129;-63
2021/03/26 13:15:04;;;;;;;6.63;3.53;;;;;;;;;;4975050;28;20046;-63
2021/03/26 13:17:49;;;;;;;11.57;4.03;;;;;;;;;;4974173;28;20042;-63
2021/03/26 13:20:58;;;;;;;6.57;4.18;;;;;;;;;;4979227;28;20046;-63
2021/03/26 13:23:44;;;;;;;8.10;3.38;;;;;;;;;;4994230;28;20050;-63
2021/03/26 13:26:28;;;;;;;9.48;3.97;;;;;;;;;;4991756;28;20046;-63
2021/03/26 13:29:19;;;;;;;6.70;3.60;;;;;;;;;;4993391;28;20061;-63
2021/03/26 13:32:04;;;;;;;7.10;3.17;;;;;;;;;;4993422;28;20046;-63
2021/03/26 13:34:50;;;;;;;8.45;4.28;;;;;;;;;;4991377;28;20484;-63
2021/03/26 13:37:37;;;;;;;5.03;3.33;;;;;;;;;;4993292;28;20046;-63
2021/03/26 13:40:22;;;;;;;13.00;3.50;;;;;;;;;;4994172;28;20054;-63
2021/03/26 13:43:17;;;;;;;9.60;3.70;;;;;;;;;;4992933;28;20038;-63
2021/03/26 13:46:03;;;;;;;9.30;3.80;;;;;;;;;;4992657;28;20042;-63
2021/03/26 13:48:48;;;;;;;7.72;3.72;;;;;;;;;;4993358;28;20512;-63
2021/03/26 13:51:37;;;;;;;8.40;3.97;;;;;;;;;;4991938;28;20057;-63
2021/03/26 13:54:22;;;;;;;6.30;3.42;;;;;;;;;;4993148;28;20042;-63
2021/03/26 13:57:33;;;;;;;6.82;4.07;;;;;;;;;;4994525;28;20488;-63
2021/03/26 14:00:21;;;;;;;7.72;3.88;;;;;;;;;;4992797;28;20497;-63
2021/03/26 14:03:11;;;;;;;7.68;4.60;;;;;;;;;;4993268;28;20496;-63
2021/03/26 14:06:04;;;;;;;7.13;3.40;;;;;;;;;;4991621;28;20054;-63
2021/03/26 14:08:53;;;;;;;8.40;4.30;;;;;;;;;;4991718;28;20504;-63
2021/03/26 14:11:57;;;;;;;5.82;3.65;;;;;;;;;;4994488;28;20055;-63
2021/03/26 14:14:46;;;;;;;7.05;4.15;;;;;;;;;;4994076;28;20050;-63
2021/03/26 14:17:40;;;;;;;7.95;3.30;;;;;;;;;;4993613;28;20125;-63
2021/03/26 14:20:30;;;;;;;6.68;3.65;;;;;;;;;;4975758;28;20054;-63
2021/03/26 14:23:23;;;;;;;6.70;3.70;;;;;;;;;;4974277;28;20055;-63
2021/03/26 14:26:22;;;;;;;6.03;3.45;;;;;;;;;;4974344;28;20070;-63
2021/03/26 14:29:18;;;;;;;17.50;3.78;;;;;;;;;;4978204;28;20516;-63
2021/03/26 14:32:06;;;;;;;8.52;4.25;;;;;;;;;;4992221;28;20053;-64
2021/03/26 14:34:55;;;;;;;8.68;3.30;;;;;;;;;;4992203;28;20038;-64
2021/03/26 14:38:33;;;;;;;9.00;3.45;;;;;;;;;;5114644;27;20366;-62
2021/03/26 14:41:35;;;;;;;8.02;3.40;;;;;;;;;;5084687;28;20501;-62
2021/03/26 14:44:21;;;;;;;7.00;3.20;;;;;;;;;;5107030;28;20143;-62
2021/03/26 14:47:10;;;;;;;8.45;3.03;;;;;;;;;;5094981;28;20557;-62
2021/03/26 14:49:57;;;;;;;6.40;3.13;;;;;;;;;;5099696;28;20418;-62
2021/03/26 14:52:47;;;;;;;5.78;3.05;;;;;;;;;;5105408;28;20063;-63
2021/03/26 14:55:34;;;;;;;6.65;3.05;;;;;;;;;;5094641;28;20056;-62
2021/03/26 14:58:30;;;;;;;6.43;3.28;;;;;;;;;;5107432;28;20055;-62
2021/03/26 15:01:21;;;;;;;7.18;3.03;;;;;;;;;;5106898;28;20052;-63
2021/03/26 15:04:09;;;;;;;6.10;3.08;;;;;;;;;;5093817;28;20043;-62
2021/03/26 15:07:03;;;;;;;8.25;3.15;;;;;;;;;;5093617;28;20037;-62
2021/03/26 15:09:49;;;;;;;8.40;3.38;;;;;;;;;;5095961;27;20465;-63
2021/03/26 15:12:34;;;;;;;5.80;3.78;;;;;;;;;;5091112;28;20508;-63
2021/03/26 15:15:33;;;;;;;8.75;3.40;;;;;;;;;;5096116;27;20048;-63
2021/03/26 15:18:21;;;;;;;8.45;3.65;;;;;;;;;;5096746;28;20071;-62
2021/03/26 15:21:09;;;;;;;6.63;3.42;;;;;;;;;;5092031;27;20525;-62
2021/03/26 15:24:05;;;;;;;11.07;3.47;;;;;;;;;;5081575;28;20040;-63
2021/03/26 15:27:05;;;;;;;18.10;4.10;;;;;;;;;;5096827;28;20059;-63
2021/03/26 15:29:55;;;;;;;7.75;3.50;;;;;;;;;;5096725;28;20082;-62
2021/03/26 15:32:52;;;;;;;4.47;3.22;;;;;;;;;;5099331;28;20044;-62
2021/03/26 15:35:50;;;;;;;7.47;3.80;;;;;;;;;;5094213;28;20068;-63
2021/03/26 15:38:48;;;;;;;8.60;4.07;;;;;;;;;;5095908;28;20047;-63
2021/03/26 15:41:34;;;;;;;8.00;4.07;;;;;;;;;;5097570;28;20497;-63
2021/03/26 15:44:22;;;;;;;8.02;4.43;;;;;;;;;;5094672;28;20045;-62
2021/03/26 15:47:21;;;;;;;8.02;4.30;;;;;;;;;;5089131;27;20036;-63
2021/03/26 15:50:14;;;;;;;7.32;4.15;;;;;;;;;;5080585;28;20045;-62
2021/03/26 15:53:03;;;;;;;5.35;3.72;;;;;;;;;;5090418;28;20185;-63
2021/03/26 15:55:51;;;;;;;4.97;3.40;;;;;;;;;;5085550;28;20045;-63
2021/03/26 15:58:44;;;;;;;11.75;4.25;;;;;;;;;;5082789;28;20039;-63
2021/03/26 16:01:29;;;;;;;6.50;4.20;;;;;;;;;;5083318;28;21379;-63
2021/03/26 16:04:17;;;;;;;7.43;4.30;;;;;;;;;;5081095;28;20483;-64
2021/03/26 16:07:03;;;;;;;7.35;4.30;;;;;;;;;;5081403;28;20052;-63
2021/03/26 16:10:06;;;;;;;8.38;4.72;;;;;;;;;;5082176;28;20094;-64
2021/03/26 16:13:01;;;;;;;7.45;3.80;;;;;;;;;;5086198;28;20549;-63
2021/03/26 16:15:52;;;;;;;8.07;3.63;;;;;;;;;;5084117;28;20038;-62
2021/03/26 16:18:46;;;;;;;6.82;3.40;;;;;;;;;;5081199;28;20471;-63
2021/03/26 16:21:37;;;;;;;9.75;4.63;;;;;;;;;;5089666;28;20524;-63
2021/03/26 16:24:31;;;;;;;5.40;3.10;;;;;;;;;;5077943;28;20037;-62
2021/03/26 16:27:34;;;;;;;10.27;3.72;;;;;;;;;;5080145;28;20105;-62
2021/03/26 16:30:24;;;;;;;6.03;2.63;;;;;;;;;;5083601;28;20052;-62
2021/03/26 16:33:28;;;;;;;7.25;3.20;;;;;;;;;;5094822;28;20212;-63
2021/03/26 16:36:20;;;;;;;9.15;3.67;;;;;;;;;;5096047;28;20036;-62
2021/03/26 16:39:11;;;;;;;5.88;2.67;;;;;;;;;;5089261;28;20040;-62
2021/03/26 16:42:02;;;;;;;2.97;2.20;;;;;;;;;;5079157;28;20036;-62
2021/03/26 16:45:07;;;;;;;6.38;3.03;;;;;;;;;;5081182;28;20433;-63
2021/03/26 16:48:04;;;;;;;5.80;2.95;;;;;;;;;;5044150;28;20498;-62
2021/03/26 16:51:08;;;;;;;7.72;2.70;;;;;;;;;;5083283;28;20560;-62
2021/03/26 16:53:57;;;;;;;5.30;2.38;;;;;;;;;;5083349;28;20506;-63
2021/03/26 16:56:46;;;;;;;3.67;2.30;;;;;;;;;;5104305;28;20529;-61
2021/03/26 16:59:33;;;;;;;4.97;2.72;;;;;;;;;;5102757;28;20043;-62
2021/03/26 17:02:23;;;;;;;6.85;2.83;;;;;;;;;;5090664;28;20044;-62
2021/03/26 17:05:26;;;;;;;5.32;2.45;;;;;;;;;;5071055;28;20044;-61